Time;durP1;ratioP1;P1;durP2;ratioP2;P2;SDS_P1;SDS_P2;PMS_P1;PMS_P2;Temp;Humidity;BMP_temperature;BMP_pressure;BME280_temperature;BME280_humidity;BME280_pressure;Samples;Min_cycle;Max_cycle;Signal;HPM_P1;HPM_P2
2023/09/29 00:00:13;;;;;;;18.20;12.60;;;;;;;13.57;78.33;100708.10;130283;1258;114756;-70
2023/09/29 00:03:35;;;;;;;20.20;12.60;;;;;;;13.53;78.38;100711.00;130253;1259;114697;-70
2023/09/29 00:06:37;;;;;;;23.10;13.60;;;;;;;13.49;78.40;100713.00;130311;1253;114728;-70
2023/09/29 00:09:39;;;;;;;17.70;13.60;;;;;;;13.44;78.46;100711.70;130340;1259;114856;-69
2023/09/29 00:12:44;;;;;;;24.80;13.90;;;;;;;13.39;78.57;100711.23;130297;1257;114786;-70
2023/09/29 00:15:48;;;;;;;21.70;13.70;;;;;;;13.33;78.95;100709.36;130305;1257;129862;-70
2023/09/29 00:18:50;;;;;;;20.00;14.20;;;;;;;13.30;78.93;100709.55;130408;1257;114692;-70
2023/09/29 00:21:52;;;;;;;17.40;13.00;;;;;;;13.25;79.09;100710.88;130377;1254;114773;-70
2023/09/29 00:24:54;;;;;;;23.40;13.30;;;;;;;13.20;79.12;100709.15;130390;1258;114733;-70
2023/09/29 00:27:57;;;;;;;23.00;14.70;;;;;;;13.16;79.22;100703.44;130400;1257;114763;-70
2023/09/29 00:30:59;;;;;;;21.10;13.00;;;;;;;13.13;79.41;100703.61;130452;1259;114808;-70
2023/09/29 00:34:01;;;;;;;19.80;13.00;;;;;;;13.10;79.71;100705.40;130446;1257;114740;-70
2023/09/29 00:37:04;;;;;;;25.20;15.40;;;;;;;13.09;79.70;100702.75;130386;1258;115102;-70
2023/09/29 00:40:12;;;;;;;19.50;14.20;;;;;;;13.08;79.86;100703.17;130436;1267;115196;-69
2023/09/29 00:43:15;;;;;;;18.80;13.80;;;;;;;13.06;79.75;100699.70;130092;1257;114894;-70
2023/09/29 00:46:17;;;;;;;19.70;13.50;;;;;;;13.03;79.94;100698.40;130366;1259;114825;-69
2023/09/29 00:49:19;;;;;;;21.00;13.50;;;;;;;13.02;80.09;100699.55;130320;1257;115418;-70
2023/09/29 00:52:23;;;;;;;20.70;14.00;;;;;;;13.00;80.11;100699.83;130295;1254;115109;-70
2023/09/29 00:55:28;;;;;;;20.20;13.20;;;;;;;12.96;80.22;100702.19;130451;1254;128940;-70
2023/09/29 00:58:30;;;;;;;18.90;14.70;;;;;;;12.92;80.22;100698.61;130104;1257;114770;-70
2023/09/29 01:01:36;;;;;;;17.70;13.30;;;;;;;12.88;80.21;100699.21;130330;1259;114911;-71
2023/09/29 01:04:38;;;;;;;22.40;13.50;;;;;;;12.83;80.46;100696.77;130203;1259;114635;-70
2023/09/29 01:07:43;;;;;;;17.30;12.30;;;;;;;12.78;80.38;100694.69;130288;1266;114725;-70
2023/09/29 01:10:46;;;;;;;17.90;13.00;;;;;;;12.74;80.77;100689.73;130517;1257;129076;-70
2023/09/29 01:13:48;;;;;;;20.50;14.10;;;;;;;12.72;81.07;100690.35;130426;1256;114718;-71
2023/09/29 01:16:50;;;;;;;20.10;13.50;;;;;;;12.73;81.37;100688.36;130326;1253;114738;-70
2023/09/29 01:19:52;;;;;;;17.40;13.10;;;;;;;12.73;81.44;100681.55;129938;1261;114901;-71
2023/09/29 01:22:55;;;;;;;17.20;11.60;;;;;;;12.74;81.86;100680.41;130219;1273;115077;-70
2023/09/29 01:25:57;;;;;;;18.30;12.90;;;;;;;12.76;82.05;100682.98;130416;1259;114744;-69
2023/09/29 01:28:59;;;;;;;18.10;13.30;;;;;;;12.79;81.94;100683.90;130468;1255;115583;-69
2023/09/29 01:32:01;;;;;;;16.20;12.50;;;;;;;12.81;81.71;100686.86;130117;1276;128715;-70
2023/09/29 01:35:04;;;;;;;18.00;12.70;;;;;;;12.81;81.80;100692.94;130208;1276;114804;-69
2023/09/29 01:38:06;;;;;;;16.10;12.40;;;;;;;12.78;81.81;100691.64;130347;1257;114786;-69
2023/09/29 01:41:10;;;;;;;18.80;13.60;;;;;;;12.76;81.75;100692.13;130305;1270;114711;-69
2023/09/29 01:44:13;;;;;;;17.30;12.70;;;;;;;12.73;81.79;100695.84;130286;1256;114891;-69
2023/09/29 01:47:15;;;;;;;24.80;12.50;;;;;;;12.71;81.81;100695.98;130302;1270;114718;-70
2023/09/29 01:50:21;;;;;;;21.40;12.30;;;;;;;12.67;81.87;100695.30;130421;1256;114818;-69
2023/09/29 01:53:23;;;;;;;16.80;11.80;;;;;;;12.63;81.88;100691.92;130402;1254;114751;-70
2023/09/29 01:56:26;;;;;;;16.60;12.30;;;;;;;12.60;82.15;100692.23;130251;1259;114817;-70
2023/09/29 01:59:28;;;;;;;16.50;12.90;;;;;;;12.57;81.92;100689.49;130372;1259;114830;-70
2023/09/29 02:02:30;;;;;;;20.20;12.60;;;;;;;12.54;82.17;100686.45;130275;1259;114769;-70
2023/09/29 02:05:32;;;;;;;19.10;12.70;;;;;;;12.52;82.01;100684.94;130063;1259;115084;-70
2023/09/29 02:08:35;;;;;;;20.50;12.50;;;;;;;12.51;82.12;100684.30;130306;1259;114763;-71
2023/09/29 02:11:39;;;;;;;15.50;12.70;;;;;;;12.49;82.52;100687.27;130274;1257;114731;-70
2023/09/29 02:14:41;;;;;;;18.50;12.50;;;;;;;12.46;82.22;100685.40;130217;1269;115624;-70
2023/09/29 02:17:50;;;;;;;17.90;12.60;;;;;;;12.44;82.45;100687.14;130214;1257;114891;-70
2023/09/29 02:20:52;;;;;;;23.80;14.20;;;;;;;12.43;82.56;100683.42;130496;1260;114824;-69
2023/09/29 02:23:57;;;;;;;19.80;13.00;;;;;;;12.42;82.71;100680.23;130176;1259;114906;-70
2023/09/29 02:27:00;;;;;;;20.10;12.90;;;;;;;12.43;83.02;100678.58;130237;1258;115144;-70
2023/09/29 02:30:04;;;;;;;17.80;13.30;;;;;;;12.44;83.12;100675.13;130335;1258;115201;-70
2023/09/29 02:33:06;;;;;;;18.00;12.80;;;;;;;12.44;83.01;100671.55;130322;1253;115234;-70
2023/09/29 02:36:08;;;;;;;19.20;13.00;;;;;;;12.45;83.14;100673.83;130268;1254;114751;-70
2023/09/29 02:39:11;;;;;;;21.20;13.00;;;;;;;12.46;83.24;100673.42;130264;1276;114707;-70
2023/09/29 02:42:14;;;;;;;21.60;12.90;;;;;;;12.47;83.19;100675.54;130538;1257;114775;-69
2023/09/29 02:45:16;;;;;;;18.80;11.60;;;;;;;12.46;83.22;100672.88;130348;1257;115250;-69
2023/09/29 02:48:18;;;;;;;19.70;12.50;;;;;;;12.46;83.41;100669.46;130208;1257;114766;-69
2023/09/29 02:51:21;;;;;;;21.20;13.70;;;;;;;12.46;83.20;100667.30;130248;1257;114891;-70
2023/09/29 02:54:23;;;;;;;20.40;12.90;;;;;;;12.47;83.47;100666.58;130328;1256;114757;-70
2023/09/29 02:57:25;;;;;;;20.80;11.60;;;;;;;12.46;83.59;100667.31;130270;1275;115174;-69
2023/09/29 03:00:29;;;;;;;21.70;12.40;;;;;;;12.47;83.66;100668.88;130247;1256;114702;-70
2023/09/29 03:03:31;;;;;;;17.40;12.60;;;;;;;12.46;83.58;100667.67;130330;1256;114792;-70
2023/09/29 03:06:33;;;;;;;21.90;12.00;;;;;;;12.45;83.55;100666.50;130331;1256;115222;-70
2023/09/29 03:09:35;;;;;;;17.80;12.30;;;;;;;12.43;83.60;100664.45;130297;1257;114720;-71
2023/09/29 03:12:38;;;;;;;16.60;11.70;;;;;;;12.41;83.46;100661.67;130385;1254;114805;-69
2023/09/29 03:15:41;;;;;;;19.10;11.90;;;;;;;12.39;83.84;100660.52;130279;1275;114789;-70
2023/09/29 03:18:44;;;;;;;18.90;11.90;;;;;;;12.37;83.45;100663.14;130324;1257;114722;-68
2023/09/29 03:21:46;;;;;;;18.80;12.70;;;;;;;12.35;83.43;100659.82;130436;1254;114796;-70
2023/09/29 03:24:48;;;;;;;14.90;11.70;;;;;;;12.34;83.50;100659.73;130475;1253;114731;-69
2023/09/29 03:27:50;;;;;;;16.20;11.00;;;;;;;12.30;83.59;100664.54;130055;1262;114902;-68
2023/09/29 03:30:52;;;;;;;17.50;12.10;;;;;;;12.26;83.65;100664.21;130275;1260;115180;-69
2023/09/29 03:33:54;;;;;;;24.50;12.10;;;;;;;12.23;83.62;100667.27;130288;1276;115256;-71
2023/09/29 03:36:57;;;;;;;17.80;12.20;;;;;;;12.19;83.86;100668.88;130023;1260;115172;-70
2023/09/29 03:39:59;;;;;;;17.70;12.30;;;;;;;12.15;83.88;100667.81;130195;1257;114801;-70
2023/09/29 03:43:01;;;;;;;19.80;12.60;;;;;;;12.11;83.64;100667.14;130194;1259;114817;-69
2023/09/29 03:46:04;;;;;;;16.40;11.70;;;;;;;12.06;83.70;100661.65;130258;1259;115196;-70
2023/09/29 03:49:06;;;;;;;16.40;12.00;;;;;;;12.00;83.46;100662.46;130429;1260;114801;-70
2023/09/29 03:52:08;;;;;;;15.10;11.60;;;;;;;11.94;83.79;100661.14;130399;1254;115448;-70
2023/09/29 03:55:12;;;;;;;16.80;11.70;;;;;;;11.89;84.03;100659.95;130420;1256;114734;-69
2023/09/29 03:58:14;;;;;;;16.60;11.00;;;;;;;11.82;83.78;100657.39;130573;1268;114722;-69
2023/09/29 04:01:17;;;;;;;18.70;12.60;;;;;;;11.77;84.06;100656.39;130347;1257;114740;-70
2023/09/29 04:04:19;;;;;;;15.50;12.40;;;;;;;11.71;84.04;100652.58;130237;1257;115330;-69
2023/09/29 04:07:21;;;;;;;17.90;12.30;;;;;;;11.65;84.28;100649.27;130328;1256;115428;-69
2023/09/29 04:10:23;;;;;;;21.80;12.80;;;;;;;11.60;84.14;100645.44;130308;1259;115392;-69
2023/09/29 04:13:25;;;;;;;21.00;12.70;;;;;;;11.55;84.02;100646.73;130251;1257;114731;-69
2023/09/29 04:16:27;;;;;;;16.90;11.80;;;;;;;11.50;84.22;100651.80;130598;1256;115233;-70
2023/09/29 04:19:29;;;;;;;19.10;12.40;;;;;;;11.45;83.88;100650.23;130286;1260;114721;-69
2023/09/29 04:22:32;;;;;;;21.10;12.70;;;;;;;11.40;84.23;100651.73;130234;1264;114981;-69
2023/09/29 04:25:34;;;;;;;19.20;11.80;;;;;;;11.33;84.34;100655.27;130285;1259;114787;-69
2023/09/29 04:28:36;;;;;;;17.10;12.00;;;;;;;11.29;84.36;100656.02;130249;1259;114758;-69
2023/09/29 04:31:39;;;;;;;17.00;11.40;;;;;;;11.23;83.85;100655.39;130301;1260;114739;-69
2023/09/29 04:34:41;;;;;;;20.00;12.40;;;;;;;11.18;84.51;100660.09;130268;1257;114712;-69
2023/09/29 04:37:43;;;;;;;16.30;11.70;;;;;;;11.13;84.64;100659.41;130229;1254;114791;-70
2023/09/29 04:40:45;;;;;;;16.10;12.20;;;;;;;11.08;84.95;100657.48;130322;1254;115771;-68
2023/09/29 04:43:47;;;;;;;17.20;12.60;;;;;;;11.06;85.16;100658.83;130233;1256;129035;-68
2023/09/29 04:46:50;;;;;;;20.00;12.40;;;;;;;11.06;85.49;100658.65;130279;1259;115288;-68
2023/09/29 04:49:52;;;;;;;15.40;11.70;;;;;;;11.06;85.49;100654.93;130308;1256;114728;-68
2023/09/29 04:52:54;;;;;;;21.30;12.10;;;;;;;11.04;85.43;100653.92;130409;1254;114798;-68
2023/09/29 04:55:59;;;;;;;17.40;12.70;;;;;;;11.02;85.28;100655.63;130300;1256;114788;-69
2023/09/29 04:59:01;;;;;;;16.20;12.40;;;;;;;11.00;85.63;100652.70;130079;1276;114817;-69
2023/09/29 05:02:05;;;;;;;16.80;12.60;;;;;;;10.99;85.96;100655.09;130213;1276;114862;-68
2023/09/29 05:05:08;;;;;;;14.60;9.60;;;;;;;10.98;85.91;100651.00;130240;1276;114760;-68
2023/09/29 05:08:10;;;;;;;19.90;13.50;;;;;;;10.99;86.06;100654.02;130412;1257;115304;-68
2023/09/29 05:11:25;;;;;;;21.60;14.90;;;;;;;11.00;86.00;100650.38;130373;1259;114734;-69
2023/09/29 05:14:27;;;;;;;20.20;13.80;;;;;;;11.00;85.86;100655.03;130404;1276;114749;-68
2023/09/29 05:17:29;;;;;;;25.40;14.50;;;;;;;11.02;86.21;100654.90;130184;1257;114769;-68
2023/09/29 05:20:31;;;;;;;18.10;13.50;;;;;;;11.04;86.54;100655.02;130322;1273;114737;-69
2023/09/29 05:23:33;;;;;;;22.90;13.70;;;;;;;11.06;86.54;100654.03;130260;1263;127641;-70
2023/09/29 05:26:35;;;;;;;20.20;13.90;;;;;;;11.09;86.99;100657.09;130246;1259;114766;-70
2023/09/29 05:29:37;;;;;;;23.10;15.10;;;;;;;11.15;87.16;100656.14;130310;1257;114750;-68
2023/09/29 05:32:39;;;;;;;21.30;15.40;;;;;;;11.21;87.31;100657.28;127811;1270;3168879;-68
2023/09/29 05:35:41;;;;;;;21.00;16.00;;;;;;;11.28;87.56;100658.59;130310;1259;114731;-68
2023/09/29 05:38:43;;;;;;;23.30;15.40;;;;;;;11.34;87.75;100661.84;130267;1259;115369;-68
2023/09/29 05:41:45;;;;;;;22.80;15.50;;;;;;;11.42;87.50;100663.10;130297;1259;114742;-68
2023/09/29 05:44:48;;;;;;;28.50;16.00;;;;;;;11.50;87.33;100659.33;130300;1264;114700;-68
2023/09/29 05:47:51;;;;;;;23.30;15.90;;;;;;;11.58;87.67;100660.19;130276;1267;114725;-68
2023/09/29 05:50:54;;;;;;;29.90;16.40;;;;;;;11.67;87.74;100657.79;130196;1254;114897;-68
2023/09/29 05:53:58;;;;;;;29.50;14.70;;;;;;;11.77;88.14;100652.65;130196;1259;114782;-68
2023/09/29 05:57:00;;;;;;;24.70;16.10;;;;;;;11.89;88.17;100653.33;130500;1257;114731;-69
2023/09/29 06:00:04;;;;;;;20.60;15.40;;;;;;;12.07;88.18;100661.95;130315;1257;114777;-69
2023/09/29 06:03:07;;;;;;;16.10;10.30;;;;;;;12.30;88.38;100658.48;130164;1260;126747;-68
2023/09/29 06:06:09;;;;;;;26.90;14.40;;;;;;;12.56;88.47;100665.58;130270;1266;114741;-69
2023/09/29 06:09:11;;;;;;;28.30;14.20;;;;;;;12.82;88.28;100664.55;130341;1257;115170;-68
2023/09/29 06:12:14;;;;;;;24.10;13.50;;;;;;;13.08;88.01;100661.57;130104;1258;114926;-68
2023/09/29 06:15:16;;;;;;;20.90;12.80;;;;;;;13.33;87.93;100665.94;130482;1256;114775;-69
2023/09/29 06:18:18;;;;;;;17.50;11.30;;;;;;;13.57;87.71;100669.14;130331;1257;114724;-69
2023/09/29 06:21:20;;;;;;;18.40;13.00;;;;;;;13.82;87.43;100676.36;130378;1267;115090;-69
2023/09/29 06:24:22;;;;;;;17.50;12.30;;;;;;;14.05;86.88;100676.13;130145;1260;128146;-68
2023/09/29 06:27:25;;;;;;;16.30;11.70;;;;;;;14.25;86.72;100670.62;130256;1257;114802;-68
2023/09/29 06:30:27;;;;;;;15.70;11.70;;;;;;;14.42;86.55;100667.49;130384;1259;114717;-69
2023/09/29 06:33:29;;;;;;;17.80;12.70;;;;;;;14.60;86.17;100674.15;130358;1257;114736;-70
2023/09/29 06:36:32;;;;;;;15.60;12.60;;;;;;;14.80;86.04;100670.61;130298;1257;114705;-69
2023/09/29 06:39:34;;;;;;;19.20;12.30;;;;;;;15.00;85.83;100668.33;130300;1257;115337;-68
2023/09/29 06:42:39;;;;;;;18.50;11.50;;;;;;;15.20;85.72;100668.70;130469;1256;116285;-70
2023/09/29 06:45:41;;;;;;;20.90;12.20;;;;;;;15.41;85.26;100665.56;130297;1266;129748;-69
2023/09/29 06:48:43;;;;;;;20.10;12.50;;;;;;;15.65;84.88;100669.45;130339;1267;114863;-73
2023/09/29 06:51:45;;;;;;;19.40;12.00;;;;;;;15.90;84.78;100670.20;130427;1258;115352;-70
2023/09/29 06:54:47;;;;;;;15.70;12.10;;;;;;;16.14;84.50;100668.98;130434;1256;114799;-69
2023/09/29 06:57:49;;;;;;;16.90;11.80;;;;;;;16.38;84.15;100668.44;130485;1267;114821;-70
2023/09/29 07:00:51;;;;;;;17.80;12.10;;;;;;;16.62;83.66;100669.55;130361;1264;114753;-69
2023/09/29 07:03:54;;;;;;;23.30;13.20;;;;;;;16.86;83.15;100666.59;130336;1267;114888;-68
2023/09/29 07:06:56;;;;;;;19.40;12.20;;;;;;;17.12;82.71;100669.89;130304;1257;129907;-68
2023/09/29 07:09:58;;;;;;;18.40;10.60;;;;;;;17.36;82.26;100671.39;130302;1259;114744;-68
2023/09/29 07:13:01;;;;;;;19.10;11.10;;;;;;;17.60;81.78;100668.39;130328;1255;114746;-69
2023/09/29 07:16:03;;;;;;;17.20;11.00;;;;;;;17.86;81.57;100667.77;130368;1267;114817;-70
2023/09/29 07:19:05;;;;;;;16.30;10.90;;;;;;;18.14;81.17;100662.29;130344;1259;114786;-69
2023/09/29 07:22:07;;;;;;;13.60;10.20;;;;;;;18.44;80.63;100660.38;130356;1259;115222;-69
2023/09/29 07:25:10;;;;;;;18.10;10.60;;;;;;;18.77;80.09;100658.75;130255;1258;114761;-69
2023/09/29 07:28:14;;;;;;;19.40;13.70;;;;;;;19.09;79.37;100656.95;130397;1275;127519;-69
2023/09/29 07:31:17;;;;;;;29.90;14.90;;;;;;;19.42;78.75;100655.60;130332;1257;114726;-69
2023/09/29 07:34:19;;;;;;;25.20;16.30;;;;;;;19.75;78.19;100655.68;130262;1259;114811;-71
2023/09/29 07:37:21;;;;;;;24.80;15.60;;;;;;;20.07;77.49;100653.41;130403;1268;115157;-71
2023/09/29 07:40:23;;;;;;;27.30;17.30;;;;;;;20.37;76.79;100653.92;130185;1260;114771;-69
2023/09/29 07:43:25;;;;;;;22.20;15.50;;;;;;;20.70;76.43;100651.34;130306;1257;115328;-69
2023/09/29 07:46:27;;;;;;;25.80;14.40;;;;;;;21.02;75.74;100659.88;130378;1257;115697;-67
2023/09/29 07:49:29;;;;;;;14.20;11.00;;;;;;;21.34;74.92;100666.33;129930;1276;128049;-68
2023/09/29 07:52:31;;;;;;;15.30;9.50;;;;;;;21.64;74.53;100666.87;130282;1267;114820;-68
2023/09/29 07:55:33;;;;;;;14.70;9.10;;;;;;;21.97;73.93;100662.50;130412;1260;114737;-69
2023/09/29 07:58:35;;;;;;;14.10;9.40;;;;;;;22.28;73.38;100658.50;130155;1265;114830;-68
2023/09/29 08:01:37;;;;;;;11.50;8.30;;;;;;;22.60;72.48;100658.61;130339;1254;114733;-70
2023/09/29 08:04:39;;;;;;;11.20;7.60;;;;;;;22.87;71.85;100661.41;130373;1260;115397;-69
2023/09/29 08:07:41;;;;;;;10.40;7.00;;;;;;;23.15;71.34;100656.92;130123;1270;115354;-69
2023/09/29 08:10:43;;;;;;;14.80;7.60;;;;;;;23.40;70.44;100654.89;130317;1267;114814;-68
2023/09/29 08:13:49;;;;;;;8.70;6.80;;;;;;;23.53;69.18;100653.80;130317;1254;114760;-68
2023/09/29 08:16:54;;;;;;;14.90;7.70;;;;;;;23.59;68.43;100648.20;130292;1257;114753;-70
2023/09/29 08:19:56;;;;;;;9.50;7.60;;;;;;;23.57;67.96;100646.13;130094;1257;114838;-69
2023/09/29 08:22:58;;;;;;;11.90;7.00;;;;;;;23.53;67.55;100647.22;130246;1254;116293;-68
2023/09/29 08:26:01;;;;;;;14.20;7.50;;;;;;;23.50;67.51;100644.95;130344;1267;114752;-69
2023/09/29 08:29:03;;;;;;;12.80;7.30;;;;;;;23.47;67.35;100639.58;130297;1260;114667;-69
2023/09/29 08:32:06;;;;;;;9.20;6.40;;;;;;;23.43;66.77;100639.41;130376;1257;115263;-71
2023/09/29 08:35:12;;;;;;;13.10;7.20;;;;;;;23.37;66.40;100641.63;130369;1257;114808;-69
2023/09/29 08:38:15;;;;;;;10.40;7.00;;;;;;;23.33;66.31;100643.66;130090;1261;114900;-71
2023/09/29 08:41:18;;;;;;;9.30;6.80;;;;;;;23.31;65.82;100646.41;130299;1258;114778;-69
2023/09/29 08:44:25;;;;;;;12.00;7.00;;;;;;;23.28;65.59;100644.54;130373;1257;114825;-70
2023/09/29 08:47:33;;;;;;;9.10;6.90;;;;;;;23.26;65.44;100645.61;130167;1260;115189;-69
2023/09/29 08:50:35;;;;;;;9.20;6.90;;;;;;;23.29;65.84;100641.52;130177;1261;114843;-69
2023/09/29 08:53:37;;;;;;;9.60;7.10;;;;;;;23.35;65.67;100641.15;130328;1254;115339;-69
2023/09/29 08:56:39;;;;;;;9.10;6.80;;;;;;;23.39;65.47;100640.35;130326;1257;115198;-69
2023/09/29 08:59:43;;;;;;;9.90;7.50;;;;;;;23.44;65.36;100641.88;130220;1260;114839;-69
2023/09/29 09:02:45;;;;;;;7.70;6.90;;;;;;;23.48;65.00;100637.69;130010;1275;128954;-69
2023/09/29 09:05:47;;;;;;;12.70;7.00;;;;;;;23.51;64.59;100636.59;130246;1275;114837;-68
2023/09/29 09:08:51;;;;;;;11.80;6.70;;;;;;;23.54;64.50;100636.13;130371;1275;114753;-68
2023/09/29 09:11:53;;;;;;;11.10;6.90;;;;;;;23.57;64.18;100636.42;130350;1275;114736;-69
2023/09/29 09:14:56;;;;;;;12.10;7.30;;;;;;;23.64;64.57;100640.64;130356;1275;114794;-69
2023/09/29 09:17:58;;;;;;;16.20;6.90;;;;;;;23.73;64.55;100642.52;130482;1258;114822;-68
2023/09/29 09:21:00;;;;;;;10.70;6.90;;;;;;;23.80;64.07;100641.05;130429;1261;114664;-70
2023/09/29 09:24:03;;;;;;;12.50;6.10;;;;;;;23.89;63.89;100638.14;130428;1254;114821;-69
2023/09/29 09:27:05;;;;;;;9.20;6.50;;;;;;;23.96;62.88;100633.78;130453;1257;114746;-69
2023/09/29 09:30:23;;;;;;;11.80;6.50;;;;;;;24.01;62.93;100632.61;130314;1258;115353;-68
2023/09/29 09:33:27;;;;;;;13.80;6.90;;;;;;;24.10;62.75;100632.20;130367;1257;114740;-69
2023/09/29 09:36:29;;;;;;;21.90;6.50;;;;;;;24.18;62.67;100630.85;130299;1261;114913;-69
2023/09/29 09:39:33;;;;;;;11.40;6.10;;;;;;;24.25;61.85;100630.48;130392;1257;115268;-67
2023/09/29 09:42:35;;;;;;;12.00;6.20;;;;;;;24.30;60.81;100626.72;130480;1275;114688;-69
2023/09/29 09:45:43;;;;;;;12.80;6.00;;;;;;;24.36;61.32;100627.18;130422;1275;114962;-68
2023/09/29 09:48:55;;;;;;;7.90;5.80;;;;;;;24.45;61.32;100622.66;130488;1257;114883;-69
2023/09/29 09:52:03;;;;;;;11.50;5.40;;;;;;;24.54;60.86;100620.40;130227;1257;114811;-68
2023/09/29 09:55:13;;;;;;;9.60;4.80;;;;;;;24.62;60.48;100618.67;130455;1258;114715;-69
2023/09/29 09:58:16;;;;;;;4.20;3.80;;;;;;;24.72;60.05;100615.34;130494;1256;129214;-69
2023/09/29 10:01:20;;;;;;;9.40;5.50;;;;;;;24.81;60.12;100616.27;130409;1256;115086;-68
2023/09/29 10:04:26;;;;;;;6.30;4.60;;;;;;;24.88;59.52;100611.67;130359;1254;114834;-69
2023/09/29 10:07:28;;;;;;;13.80;6.00;;;;;;;24.93;58.71;100609.45;130367;1257;114725;-69
2023/09/29 10:10:33;;;;;;;12.30;5.80;;;;;;;24.96;58.64;100607.31;130366;1254;114766;-69
2023/09/29 10:13:35;;;;;;;10.10;4.80;;;;;;;25.00;58.28;100606.84;130085;1260;119411;-69
2023/09/29 10:16:40;;;;;;;14.50;5.80;;;;;;;25.05;58.02;100606.35;130243;1276;114827;-69
2023/09/29 10:19:44;;;;;;;7.40;5.00;;;;;;;25.10;57.95;100606.77;130041;1254;114836;-70
2023/09/29 10:22:54;;;;;;;5.20;3.20;;;;;;;25.15;57.90;100604.19;130189;1258;114783;-68
2023/09/29 10:25:58;;;;;;;9.90;5.30;;;;;;;25.21;57.60;100603.49;130326;1259;114759;-68
2023/09/29 10:29:01;;;;;;;5.80;4.70;;;;;;;25.24;56.93;100599.63;130074;1254;119441;-69
2023/09/29 10:32:20;;;;;;;14.20;5.80;;;;;;;25.25;56.22;100599.16;130288;1257;115256;-68
2023/09/29 10:35:24;;;;;;;10.80;4.80;;;;;;;25.28;56.25;100603.02;130089;1256;115075;-69
2023/09/29 10:38:29;;;;;;;13.50;5.40;;;;;;;25.30;56.06;100596.36;130166;1257;115164;-69
2023/09/29 10:41:33;;;;;;;10.50;5.00;;;;;;;25.33;55.93;100591.15;130343;1257;115199;-69
2023/09/29 10:44:44;;;;;;;7.80;5.30;;;;;;;25.37;55.80;100586.94;130243;1257;120030;-69
2023/09/29 10:47:46;;;;;;;9.30;5.30;;;;;;;25.39;55.49;100582.50;130289;1257;114747;-70
2023/09/29 10:50:49;;;;;;;3.90;2.70;;;;;;;25.39;55.22;100580.86;130384;1273;116487;-70
2023/09/29 10:53:52;;;;;;;12.10;5.30;;;;;;;25.40;55.17;100578.83;130451;1257;114807;-69
2023/09/29 10:56:54;;;;;;;7.20;3.80;;;;;;;25.41;54.25;100581.10;130376;1257;114808;-69
2023/09/29 10:59:59;;;;;;;11.60;4.80;;;;;;;25.41;54.19;100581.88;130391;1258;114751;-69
2023/09/29 11:03:02;;;;;;;6.90;4.70;;;;;;;25.39;53.85;100576.67;130381;1257;119309;-68
2023/09/29 11:06:09;;;;;;;8.60;4.70;;;;;;;25.39;53.52;100575.75;130346;1257;114830;-69
2023/09/29 11:09:16;;;;;;;10.10;4.40;;;;;;;25.34;52.64;100574.20;130369;1256;114738;-70
2023/09/29 11:12:18;;;;;;;7.90;5.10;;;;;;;25.30;52.50;100567.02;130257;1259;114909;-69
2023/09/29 11:15:22;;;;;;;7.10;4.10;;;;;;;25.28;52.70;100561.88;130461;1276;115154;-70
2023/09/29 11:18:29;;;;;;;4.40;3.70;;;;;;;25.29;52.60;100557.42;129993;1263;118975;-69
2023/09/29 11:21:35;;;;;;;5.30;4.30;;;;;;;25.29;52.88;100553.94;130018;1257;114954;-69
2023/09/29 11:24:43;;;;;;;10.80;4.90;;;;;;;25.26;52.40;100550.92;130117;1261;114977;-68
2023/09/29 11:27:51;;;;;;;4.20;3.50;;;;;;;25.22;52.09;100540.98;130211;1260;114777;-69
2023/09/29 11:30:54;;;;;;;8.60;4.90;;;;;;;25.22;52.09;100536.10;130350;1273;114754;-69
2023/09/29 11:33:56;;;;;;;8.60;4.00;;;;;;;25.22;51.95;100533.34;130471;1253;114862;-68
2023/09/29 11:36:58;;;;;;;8.40;4.40;;;;;;;25.21;51.85;100535.59;130356;1257;114865;-69
2023/09/29 11:40:05;;;;;;;8.20;4.30;;;;;;;25.21;51.63;100530.69;130603;1276;114728;-69
2023/09/29 11:43:07;;;;;;;8.10;4.10;;;;;;;25.19;49.79;100528.90;130481;1257;114779;-69
2023/09/29 11:46:09;;;;;;;7.70;4.80;;;;;;;25.17;50.00;100527.92;130444;1257;115023;-69
2023/09/29 11:49:12;;;;;;;6.10;3.30;;;;;;;25.16;49.75;100523.98;130429;1257;114879;-69
2023/09/29 11:52:14;;;;;;;3.50;3.10;;;;;;;25.16;49.28;100522.27;129978;1264;115288;-69
2023/09/29 11:55:16;;;;;;;7.30;4.50;;;;;;;25.14;49.06;100521.34;130419;1254;114779;-69
2023/09/29 11:58:18;;;;;;;8.40;4.90;;;;;;;25.14;50.05;100521.17;130428;1258;115688;-69
2023/09/29 12:01:20;;;;;;;4.20;3.30;;;;;;;25.14;50.30;100515.29;130347;1257;114823;-69
2023/09/29 12:04:22;;;;;;;7.50;3.80;;;;;;;25.16;50.12;100512.02;130332;1276;114782;-69
2023/09/29 12:07:25;;;;;;;8.20;5.20;;;;;;;25.15;50.26;100512.40;130358;1276;115169;-69
2023/09/29 12:10:28;;;;;;;6.40;4.90;;;;;;;25.16;50.43;100509.20;130180;1254;114780;-68
2023/09/29 12:13:32;;;;;;;3.40;3.10;;;;;;;25.18;50.51;100510.83;130377;1253;114737;-69
2023/09/29 12:16:36;;;;;;;7.90;3.90;;;;;;;25.20;50.20;100510.52;130495;1257;119160;-69
2023/09/29 12:19:38;;;;;;;4.70;2.30;;;;;;;25.20;50.03;100508.54;130463;1276;115221;-69
2023/09/29 12:22:43;;;;;;;7.20;4.80;;;;;;;25.20;49.91;100507.17;130372;1257;114826;-69
2023/09/29 12:25:45;;;;;;;7.70;4.40;;;;;;;25.22;49.36;100506.63;130478;1260;115334;-69
2023/09/29 12:28:47;;;;;;;5.20;4.70;;;;;;;25.24;49.00;100501.83;130357;1276;115246;-69
2023/09/29 12:31:49;;;;;;;8.10;4.40;;;;;;;25.28;48.96;100502.29;130395;1276;114766;-68
2023/09/29 12:34:51;;;;;;;4.90;4.00;;;;;;;25.31;48.95;100500.73;130096;1254;120033;-69
2023/09/29 12:37:53;;;;;;;9.90;5.60;;;;;;;25.33;48.77;100495.55;130311;1257;114738;-68
2023/09/29 12:40:55;;;;;;;7.30;4.50;;;;;;;25.36;48.57;100491.34;130384;1257;114814;-69
2023/09/29 12:43:58;;;;;;;3.30;2.90;;;;;;;25.40;48.56;100492.26;130407;1257;114763;-69
2023/09/29 12:46:59;;;;;;;7.00;3.00;;;;;;;25.41;48.16;100490.11;130400;1257;115282;-69
2023/09/29 12:50:03;;;;;;;3.10;2.70;;;;;;;25.43;47.89;100486.09;130395;1265;114717;-69
2023/09/29 12:53:05;;;;;;;9.50;3.80;;;;;;;25.45;47.74;100488.42;130247;1256;114814;-68
2023/09/29 12:56:09;;;;;;;5.80;2.70;;;;;;;25.45;47.42;100487.84;130379;1273;114754;-69
2023/09/29 12:59:11;;;;;;;;;;;;;;;25.45;47.20;100484.73;130434;1275;115418;-69
2023/09/29 13:02:15;;;;;;;5.70;4.10;;;;;;;25.44;46.99;100483.39;130440;1256;114791;-69
2023/09/29 13:05:17;;;;;;;9.30;3.90;;;;;;;25.45;47.18;100483.25;130298;1257;115173;-70
2023/09/29 13:08:19;;;;;;;7.10;3.70;;;;;;;25.51;46.82;100486.69;130581;1254;114788;-71
2023/09/29 13:11:21;;;;;;;14.80;7.30;;;;;;;25.58;46.46;100484.27;130527;1257;114737;-70
2023/09/29 13:14:24;;;;;;;7.00;4.50;;;;;;;25.67;46.15;100484.98;130330;1276;118846;-70
2023/09/29 13:17:26;;;;;;;7.70;4.60;;;;;;;25.74;46.06;100484.13;130365;1276;114788;-70
2023/09/29 13:20:28;;;;;;;8.80;4.10;;;;;;;25.82;46.73;100482.60;130421;1253;114745;-72
2023/09/29 13:23:30;;;;;;;2.70;1.70;;;;;;;25.86;46.71;100479.95;130063;1260;114987;-72
2023/09/29 13:26:31;;;;;;;10.20;4.00;;;;;;;25.87;46.42;100479.73;130305;1276;115208;-71
2023/09/29 13:29:33;;;;;;;3.10;2.20;;;;;;;25.88;46.31;100474.73;130328;1255;115407;-71
2023/09/29 13:32:35;;;;;;;5.10;2.10;;;;;;;25.88;46.51;100471.95;130342;1257;114693;-70
2023/09/29 13:35:37;;;;;;;7.00;4.00;;;;;;;25.89;46.58;100472.43;130272;1257;114751;-70
2023/09/29 13:38:39;;;;;;;4.00;1.90;;;;;;;25.87;45.98;100471.75;130375;1276;114805;-70